KBUF/BUF METAR and TAF weather

Enter ICAO airport designator
Station Type Date Time Source
KBUF METAR 2020/09/18 22:54 UTC NOAA

KBUF 182254Z 36008KT 10SM SCT060 13/00 A3026 RMK AO2 SLP248 T01280000


Station Type Date Time Source
KBUF Decoded METAR 2020/09/18 22:54 UTC NOAA

GREATER BUFFALO INTERNATIONAL AIRPORT , NY, United States (KBUF) 42-56N 078-44W 225M
Sep 18, 2020 - 06:54 PM EDT / 2020.09.18 2254 UTC
Wind: from the N (360 degrees) at 9 MPH (8 KT):0
Visibility: 10 mile(s):0
Sky conditions: partly cloudy
Temperature: 55.0 F (12.8 C)
Dew Point: 32.0 F (0.0 C)
Relative Humidity: 41%
Pressure (altimeter): 30.26 in. Hg (1024 hPa)
ob: KBUF 182254Z 36008KT 10SM SCT060 13/00 A3026 RMK AO2 SLP248 T01280000
cycle: 23

Station Type Date Time Source
KBUF TAF 2020/09/18 21:12 UTC NOAA

TAF
AMD KBUF 182111Z 1821/1918 01010KT P6SM SCT050
FM190400 02005KT P6SM SCT050
FM191500 05008KT P6SM FEW050

Example: see airport list